This is the latest recevied weather packets stored in our database for station/object DL9GRB-13. If no packets are shown the sender has not sent any weather packets the latest 10 day(s).
| Time | Temp. | Humidity | Pressure | Rain* | Wind** | Luminosity | Snow |
|---|---|---|---|---|---|---|---|
| 1778248509 | 16.11° C | 42% | 1020 hPa | 0 mm | - | 660 W/m² | - |
| 1778248329 | 16.11° C | 43% | 1020.1 hPa | 0 mm | - | 682 W/m² | - |
| 1778248149 | 15.56° C | 42% | 1020.1 hPa | 0 mm | - | 569 W/m² | - |
| 1778247969 | 15.56° C | 42% | 1020.3 hPa | 0 mm | - | 171 W/m² | - |
| 1778247789 | 15.56° C | 41% | 1020 hPa | 0 mm | - | 733 W/m² | - |
| 1778247609 | 16.11° C | 40% | 1020.2 hPa | 0 mm | - | 754 W/m² | - |
| 1778247429 | 16.11° C | 41% | 1020.1 hPa | 0 mm | - | 406 W/m² | - |
| 1778247249 | 16.11° C | 40% | 1020 hPa | 0 mm | - | 739 W/m² | - |
| 1778247069 | 16.11° C | 40% | 1020.2 hPa | 0 mm | - | 568 W/m² | - |
| 1778246889 | 16.11° C | 39% | 1020.3 hPa | 0 mm | - | 663 W/m² | - |
| 1778246709 | 16.11° C | 39% | 1020.2 hPa | 0 mm | - | 664 W/m² | - |
| 1778246529 | 16.67° C | 39% | 1020.3 hPa | 0 mm | - | 671 W/m² | - |
| 1778246349 | 16.11° C | 40% | 1020.3 hPa | 0 mm | - | 685 W/m² | - |
| 1778246169 | 16.11° C | 39% | 1020.2 hPa | 0 mm | - | 684 W/m² | - |
| 1778245989 | 16.11° C | 37% | 1020.4 hPa | 0 mm | - | 496 W/m² | - |
| 1778245809 | 16.11° C | 36% | 1020.4 hPa | 0 mm | - | 724 W/m² | - |
| 1778245629 | 16.67° C | 37% | 1020.3 hPa | 0 mm | - | 720 W/m² | - |
| 1778245449 | 16.67° C | 35% | 1020.2 hPa | 0 mm | - | 709 W/m² | - |
| 1778245269 | 16.67° C | 37% | 1020.4 hPa | 0 mm | - | 709 W/m² | - |
| 1778245089 | 16.67° C | 37% | 1020.4 hPa | 0 mm | - | 710 W/m² | - |
| 1778244909 | 16.67° C | 37% | 1020.3 hPa | 0 mm | - | 722 W/m² | - |
| 1778244729 | 16.67° C | 36% | 1020.4 hPa | 0 mm | - | 728 W/m² | - |
| 1778244549 | 16.67° C | 36% | 1020.4 hPa | 0 mm | - | 735 W/m² | - |
| 1778244369 | 16.11° C | 38% | 1020.4 hPa | 0 mm | - | 738 W/m² | - |
| 1778244189 | 16.11° C | 36% | 1020.4 hPa | 0 mm | - | 743 W/m² | - |
* Rain latest hour (hover to see other rain measurements)
** Current wind speed in m/s (hover to see current wind gust speed)